sensor_id;sensor_type;location;lat;lon;timestamp;temperature;humidity
50758;DHT22;36732;47.980;11.652;2023-07-13T00:00:26;24.30;60.40
50758;DHT22;36732;47.980;11.652;2023-07-13T00:02:52;24.30;61.00
50758;DHT22;36732;47.980;11.652;2023-07-13T00:05:20;24.20;60.30
50758;DHT22;36732;47.980;11.652;2023-07-13T00:07:46;24.20;60.30
50758;DHT22;36732;47.980;11.652;2023-07-13T00:10:12;24.20;60.40
50758;DHT22;36732;47.980;11.652;2023-07-13T00:12:38;24.20;60.40
50758;DHT22;36732;47.980;11.652;2023-07-13T00:15:08;24.20;60.40
50758;DHT22;36732;47.980;11.652;2023-07-13T00:17:39;24.20;60.50
50758;DHT22;36732;47.980;11.652;2023-07-13T00:20:06;24.20;60.40
50758;DHT22;36732;47.980;11.652;2023-07-13T00:22:32;24.20;60.40
50758;DHT22;36732;47.980;11.652;2023-07-13T00:24:58;24.20;60.40
50758;DHT22;36732;47.980;11.652;2023-07-13T00:27:24;24.20;60.40
50758;DHT22;36732;47.980;11.652;2023-07-13T00:29:55;24.20;60.40
50758;DHT22;36732;47.980;11.652;2023-07-13T00:32:21;24.10;60.40
50758;DHT22;36732;47.980;11.652;2023-07-13T00:34:46;24.10;60.40
50758;DHT22;36732;47.980;11.652;2023-07-13T00:37:12;24.10;60.50
50758;DHT22;36732;47.980;11.652;2023-07-13T00:39:38;24.10;60.40
50758;DHT22;36732;47.980;11.652;2023-07-13T00:42:05;24.10;60.40
50758;DHT22;36732;47.980;11.652;2023-07-13T00:44:31;24.10;60.40
50758;DHT22;36732;47.980;11.652;2023-07-13T00:46:57;24.10;61.10
50758;DHT22;36732;47.980;11.652;2023-07-13T00:49:25;24.00;60.40
50758;DHT22;36732;47.980;11.652;2023-07-13T00:51:58;24.00;60.50
50758;DHT22;36732;47.980;11.652;2023-07-13T00:54:35;24.00;60.60
50758;DHT22;36732;47.980;11.652;2023-07-13T00:57:08;24.00;60.70
50758;DHT22;36732;47.980;11.652;2023-07-13T00:59:36;24.00;60.70
50758;DHT22;36732;47.980;11.652;2023-07-13T01:02:05;24.00;60.90
50758;DHT22;36732;47.980;11.652;2023-07-13T01:04:30;24.00;60.60
50758;DHT22;36732;47.980;11.652;2023-07-13T01:06:57;24.00;60.60
50758;DHT22;36732;47.980;11.652;2023-07-13T01:09:23;24.00;60.60
50758;DHT22;36732;47.980;11.652;2023-07-13T01:11:49;23.90;60.60
50758;DHT22;36732;47.980;11.652;2023-07-13T01:14:15;23.90;60.60
50758;DHT22;36732;47.980;11.652;2023-07-13T01:16:42;23.90;60.60
50758;DHT22;36732;47.980;11.652;2023-07-13T01:19:37;23.90;60.60
50758;DHT22;36732;47.980;11.652;2023-07-13T01:22:16;23.90;60.90
50758;DHT22;36732;47.980;11.652;2023-07-13T01:24:46;23.90;60.90
50758;DHT22;36732;47.980;11.652;2023-07-13T01:27:14;23.90;60.60
50758;DHT22;36732;47.980;11.652;2023-07-13T01:29:43;23.80;60.50
50758;DHT22;36732;47.980;11.652;2023-07-13T01:32:17;23.90;60.70
50758;DHT22;36732;47.980;11.652;2023-07-13T01:34:52;23.80;60.80
50758;DHT22;36732;47.980;11.652;2023-07-13T01:37:23;23.80;60.80
50758;DHT22;36732;47.980;11.652;2023-07-13T01:39:50;23.80;60.70
50758;DHT22;36732;47.980;11.652;2023-07-13T01:42:15;23.80;60.70
50758;DHT22;36732;47.980;11.652;2023-07-13T01:44:41;23.80;60.70
50758;DHT22;36732;47.980;11.652;2023-07-13T01:47:07;23.80;61.40
50758;DHT22;36732;47.980;11.652;2023-07-13T01:49:33;23.80;60.80
50758;DHT22;36732;47.980;11.652;2023-07-13T01:51:58;23.80;60.80
50758;DHT22;36732;47.980;11.652;2023-07-13T01:54:24;23.70;60.70
50758;DHT22;36732;47.980;11.652;2023-07-13T01:56:50;23.70;60.80
50758;DHT22;36732;47.980;11.652;2023-07-13T01:59:16;23.70;60.80
50758;DHT22;36732;47.980;11.652;2023-07-13T02:01:41;23.70;60.80
50758;DHT22;36732;47.980;11.652;2023-07-13T02:04:07;23.70;60.80
50758;DHT22;36732;47.980;11.652;2023-07-13T02:06:33;23.70;60.80
50758;DHT22;36732;47.980;11.652;2023-07-13T02:08:58;23.70;60.80
50758;DHT22;36732;47.980;11.652;2023-07-13T02:11:25;23.70;60.80
50758;DHT22;36732;47.980;11.652;2023-07-13T02:13:58;23.70;60.80
50758;DHT22;36732;47.980;11.652;2023-07-13T02:16:26;23.70;60.80
50758;DHT22;36732;47.980;11.652;2023-07-13T02:18:51;23.70;60.80
50758;DHT22;36732;47.980;11.652;2023-07-13T02:21:17;23.60;60.70
50758;DHT22;36732;47.980;11.652;2023-07-13T02:23:43;23.60;60.70
50758;DHT22;36732;47.980;11.652;2023-07-13T02:26:09;23.60;60.80
50758;DHT22;36732;47.980;11.652;2023-07-13T02:28:35;23.60;60.70
50758;DHT22;36732;47.980;11.652;2023-07-13T02:31:10;23.60;60.90
50758;DHT22;36732;47.980;11.652;2023-07-13T02:33:37;23.50;61.20
50758;DHT22;36732;47.980;11.652;2023-07-13T02:36:02;23.60;61.10
50758;DHT22;36732;47.980;11.652;2023-07-13T02:38:31;23.60;61.10
50758;DHT22;36732;47.980;11.652;2023-07-13T02:40:59;23.60;61.20
50758;DHT22;36732;47.980;11.652;2023-07-13T02:43:25;23.60;61.30
50758;DHT22;36732;47.980;11.652;2023-07-13T02:45:51;23.50;61.20
50758;DHT22;36732;47.980;11.652;2023-07-13T02:48:17;23.50;61.20
50758;DHT22;36732;47.980;11.652;2023-07-13T02:50:44;23.50;61.30
50758;DHT22;36732;47.980;11.652;2023-07-13T02:53:10;23.50;61.30
50758;DHT22;36732;47.980;11.652;2023-07-13T02:55:36;23.60;61.40
50758;DHT22;36732;47.980;11.652;2023-07-13T02:58:01;23.50;61.40
50758;DHT22;36732;47.980;11.652;2023-07-13T03:00:27;23.50;61.40
50758;DHT22;36732;47.980;11.652;2023-07-13T03:02:53;23.50;61.40
50758;DHT22;36732;47.980;11.652;2023-07-13T03:05:22;23.50;61.40
50758;DHT22;36732;47.980;11.652;2023-07-13T03:07:48;23.50;61.40
50758;DHT22;36732;47.980;11.652;2023-07-13T03:10:14;23.50;61.40
50758;DHT22;36732;47.980;11.652;2023-07-13T03:12:40;23.50;61.50
50758;DHT22;36732;47.980;11.652;2023-07-13T03:15:06;23.50;61.60
50758;DHT22;36732;47.980;11.652;2023-07-13T03:17:31;23.50;61.60
50758;DHT22;36732;47.980;11.652;2023-07-13T03:19:57;23.50;61.70
50758;DHT22;36732;47.980;11.652;2023-07-13T03:22:23;23.50;61.80
50758;DHT22;36732;47.980;11.652;2023-07-13T03:24:49;23.50;61.80
50758;DHT22;36732;47.980;11.652;2023-07-13T03:27:16;23.50;61.90
50758;DHT22;36732;47.980;11.652;2023-07-13T03:29:42;23.50;61.90
50758;DHT22;36732;47.980;11.652;2023-07-13T03:32:09;23.50;61.80
50758;DHT22;36732;47.980;11.652;2023-07-13T03:34:35;23.50;61.70
50758;DHT22;36732;47.980;11.652;2023-07-13T03:37:00;23.50;61.70
50758;DHT22;36732;47.980;11.652;2023-07-13T03:39:26;23.50;61.60
50758;DHT22;36732;47.980;11.652;2023-07-13T03:41:52;23.40;61.50
50758;DHT22;36732;47.980;11.652;2023-07-13T03:44:18;23.40;61.60
50758;DHT22;36732;47.980;11.652;2023-07-13T03:46:44;23.40;61.50
50758;DHT22;36732;47.980;11.652;2023-07-13T03:49:10;23.40;61.60
50758;DHT22;36732;47.980;11.652;2023-07-13T03:51:36;23.40;61.60
50758;DHT22;36732;47.980;11.652;2023-07-13T03:54:03;23.40;61.40
50758;DHT22;36732;47.980;11.652;2023-07-13T03:56:29;23.30;61.40
50758;DHT22;36732;47.980;11.652;2023-07-13T03:58:56;23.40;61.50
50758;DHT22;36732;47.980;11.652;2023-07-13T04:01:23;23.30;61.30
50758;DHT22;36732;47.980;11.652;2023-07-13T04:03:51;23.30;61.20
50758;DHT22;36732;47.980;11.652;2023-07-13T04:06:23;23.30;61.30
50758;DHT22;36732;47.980;11.652;2023-07-13T04:08:53;23.30;61.30
50758;DHT22;36732;47.980;11.652;2023-07-13T04:11:23;23.30;61.30
50758;DHT22;36732;47.980;11.652;2023-07-13T04:13:50;23.30;61.30
50758;DHT22;36732;47.980;11.652;2023-07-13T04:16:18;23.30;61.30
50758;DHT22;36732;47.980;11.652;2023-07-13T04:18:45;23.30;61.30
50758;DHT22;36732;47.980;11.652;2023-07-13T04:21:13;23.30;61.30
50758;DHT22;36732;47.980;11.652;2023-07-13T04:23:39;23.20;61.30
50758;DHT22;36732;47.980;11.652;2023-07-13T04:26:05;23.20;61.20
50758;DHT22;36732;47.980;11.652;2023-07-13T04:28:31;23.20;61.30
50758;DHT22;36732;47.980;11.652;2023-07-13T04:30:57;23.20;61.20
50758;DHT22;36732;47.980;11.652;2023-07-13T04:33:23;23.20;61.30
50758;DHT22;36732;47.980;11.652;2023-07-13T04:35:50;23.20;61.30
50758;DHT22;36732;47.980;11.652;2023-07-13T04:38:23;23.20;61.40
50758;DHT22;36732;47.980;11.652;2023-07-13T04:40:50;23.20;61.40
50758;DHT22;36732;47.980;11.652;2023-07-13T04:43:16;23.10;61.20
50758;DHT22;36732;47.980;11.652;2023-07-13T04:45:42;23.10;61.30
50758;DHT22;36732;47.980;11.652;2023-07-13T04:48:08;23.10;61.20
50758;DHT22;36732;47.980;11.652;2023-07-13T04:50:36;23.10;61.20
50758;DHT22;36732;47.980;11.652;2023-07-13T04:53:03;23.10;61.00
50758;DHT22;36732;47.980;11.652;2023-07-13T04:55:30;23.10;61.10
50758;DHT22;36732;47.980;11.652;2023-07-13T04:57:56;23.10;61.30
50758;DHT22;36732;47.980;11.652;2023-07-13T05:00:22;23.00;61.30
50758;DHT22;36732;47.980;11.652;2023-07-13T05:02:47;23.00;61.30
50758;DHT22;36732;47.980;11.652;2023-07-13T05:05:13;23.00;61.40
50758;DHT22;36732;47.980;11.652;2023-07-13T05:07:39;23.00;61.50
50758;DHT22;36732;47.980;11.652;2023-07-13T05:10:05;23.00;61.50
50758;DHT22;36732;47.980;11.652;2023-07-13T05:12:31;23.00;61.60
50758;DHT22;36732;47.980;11.652;2023-07-13T05:14:57;23.00;61.70
50758;DHT22;36732;47.980;11.652;2023-07-13T05:17:22;23.00;61.90
50758;DHT22;36732;47.980;11.652;2023-07-13T05:19:48;22.90;61.90
50758;DHT22;36732;47.980;11.652;2023-07-13T05:22:14;22.90;62.00
50758;DHT22;36732;47.980;11.652;2023-07-13T05:24:40;23.00;62.10
50758;DHT22;36732;47.980;11.652;2023-07-13T05:27:05;22.90;62.10
50758;DHT22;36732;47.980;11.652;2023-07-13T05:29:31;23.00;62.20
50758;DHT22;36732;47.980;11.652;2023-07-13T05:31:57;22.90;62.20
50758;DHT22;36732;47.980;11.652;2023-07-13T05:34:23;22.90;62.20
50758;DHT22;36732;47.980;11.652;2023-07-13T05:36:48;22.90;62.20
50758;DHT22;36732;47.980;11.652;2023-07-13T05:39:15;22.90;62.30
50758;DHT22;36732;47.980;11.652;2023-07-13T05:41:41;22.90;62.20
50758;DHT22;36732;47.980;11.652;2023-07-13T05:44:07;22.90;62.20
50758;DHT22;36732;47.980;11.652;2023-07-13T05:46:33;22.90;62.80
50758;DHT22;36732;47.980;11.652;2023-07-13T05:48:59;22.90;62.20
50758;DHT22;36732;47.980;11.652;2023-07-13T05:51:25;22.90;62.30
50758;DHT22;36732;47.980;11.652;2023-07-13T05:53:51;22.90;62.30
50758;DHT22;36732;47.980;11.652;2023-07-13T05:56:16;22.90;62.30
50758;DHT22;36732;47.980;11.652;2023-07-13T05:58:42;22.90;62.20
50758;DHT22;36732;47.980;11.652;2023-07-13T06:01:12;22.90;62.40
50758;DHT22;36732;47.980;11.652;2023-07-13T06:03:40;22.90;62.70
50758;DHT22;36732;47.980;11.652;2023-07-13T06:06:07;22.90;62.60
50758;DHT22;36732;47.980;11.652;2023-07-13T06:08:35;22.90;62.50
50758;DHT22;36732;47.980;11.652;2023-07-13T06:11:06;22.90;62.70
50758;DHT22;36732;47.980;11.652;2023-07-13T06:13:33;22.90;62.90
50758;DHT22;36732;47.980;11.652;2023-07-13T06:16:00;22.90;63.00
50758;DHT22;36732;47.980;11.652;2023-07-13T06:18:26;22.90;63.10
50758;DHT22;36732;47.980;11.652;2023-07-13T06:20:52;22.90;63.30
50758;DHT22;36732;47.980;11.652;2023-07-13T06:23:17;22.90;63.30
50758;DHT22;36732;47.980;11.652;2023-07-13T06:25:43;22.90;63.40
50758;DHT22;36732;47.980;11.652;2023-07-13T06:28:09;22.90;63.50
50758;DHT22;36732;47.980;11.652;2023-07-13T06:30:34;23.00;63.60
50758;DHT22;36732;47.980;11.652;2023-07-13T06:33:00;23.00;63.70
50758;DHT22;36732;47.980;11.652;2023-07-13T06:35:26;23.00;63.70
50758;DHT22;36732;47.980;11.652;2023-07-13T06:37:52;23.00;63.90
50758;DHT22;36732;47.980;11.652;2023-07-13T06:40:17;23.00;63.80
50758;DHT22;36732;47.980;11.652;2023-07-13T06:42:43;23.00;63.70
50758;DHT22;36732;47.980;11.652;2023-07-13T06:45:09;23.00;63.70
50758;DHT22;36732;47.980;11.652;2023-07-13T06:47:35;23.00;63.80
50758;DHT22;36732;47.980;11.652;2023-07-13T06:50:01;23.00;63.70
50758;DHT22;36732;47.980;11.652;2023-07-13T06:52:26;23.00;63.70
50758;DHT22;36732;47.980;11.652;2023-07-13T06:54:52;23.00;63.70
50758;DHT22;36732;47.980;11.652;2023-07-13T06:57:18;23.00;63.80
50758;DHT22;36732;47.980;11.652;2023-07-13T06:59:43;23.00;63.80
50758;DHT22;36732;47.980;11.652;2023-07-13T07:02:10;23.00;63.80
50758;DHT22;36732;47.980;11.652;2023-07-13T07:04:37;23.00;63.90
50758;DHT22;36732;47.980;11.652;2023-07-13T07:07:02;23.00;63.90
50758;DHT22;36732;47.980;11.652;2023-07-13T07:09:28;23.00;64.00
50758;DHT22;36732;47.980;11.652;2023-07-13T07:11:55;23.00;63.90
50758;DHT22;36732;47.980;11.652;2023-07-13T07:14:21;23.00;64.10
50758;DHT22;36732;47.980;11.652;2023-07-13T07:16:46;23.00;64.60
50758;DHT22;36732;47.980;11.652;2023-07-13T07:19:12;23.00;64.10
50758;DHT22;36732;47.980;11.652;2023-07-13T07:21:38;23.00;64.20
50758;DHT22;36732;47.980;11.652;2023-07-13T07:24:04;23.10;64.40
50758;DHT22;36732;47.980;11.652;2023-07-13T07:26:31;23.00;64.50
50758;DHT22;36732;47.980;11.652;2023-07-13T07:28:57;23.10;64.50
50758;DHT22;36732;47.980;11.652;2023-07-13T07:31:22;23.00;64.40
50758;DHT22;36732;47.980;11.652;2023-07-13T07:33:48;23.00;64.50
50758;DHT22;36732;47.980;11.652;2023-07-13T07:36:15;23.10;64.50
50758;DHT22;36732;47.980;11.652;2023-07-13T07:38:42;23.10;64.50
50758;DHT22;36732;47.980;11.652;2023-07-13T07:41:08;23.10;64.50
50758;DHT22;36732;47.980;11.652;2023-07-13T07:43:34;23.10;64.70
50758;DHT22;36732;47.980;11.652;2023-07-13T07:46:00;23.00;64.60
50758;DHT22;36732;47.980;11.652;2023-07-13T07:48:26;23.10;64.80
50758;DHT22;36732;47.980;11.652;2023-07-13T07:50:52;23.10;64.90
50758;DHT22;36732;47.980;11.652;2023-07-13T07:53:17;23.10;65.00
50758;DHT22;36732;47.980;11.652;2023-07-13T07:55:43;23.10;65.10
50758;DHT22;36732;47.980;11.652;2023-07-13T07:58:10;23.10;64.90
50758;DHT22;36732;47.980;11.652;2023-07-13T08:00:36;23.10;64.90
50758;DHT22;36732;47.980;11.652;2023-07-13T08:03:02;23.10;64.40
50758;DHT22;36732;47.980;11.652;2023-07-13T08:05:28;23.10;63.80
50758;DHT22;36732;47.980;11.652;2023-07-13T08:07:54;23.10;63.60
50758;DHT22;36732;47.980;11.652;2023-07-13T08:10:20;23.10;63.60
50758;DHT22;36732;47.980;11.652;2023-07-13T08:12:45;23.10;63.60
50758;DHT22;36732;47.980;11.652;2023-07-13T08:15:13;23.10;63.70
50758;DHT22;36732;47.980;11.652;2023-07-13T08:17:40;23.10;63.60
50758;DHT22;36732;47.980;11.652;2023-07-13T08:20:06;23.10;63.40
50758;DHT22;36732;47.980;11.652;2023-07-13T08:22:32;23.10;63.50
50758;DHT22;36732;47.980;11.652;2023-07-13T08:24:59;23.10;63.60
50758;DHT22;36732;47.980;11.652;2023-07-13T08:27:26;23.10;63.40
50758;DHT22;36732;47.980;11.652;2023-07-13T08:29:53;23.10;63.50
50758;DHT22;36732;47.980;11.652;2023-07-13T08:32:21;23.10;63.50
50758;DHT22;36732;47.980;11.652;2023-07-13T08:34:47;23.10;63.40
50758;DHT22;36732;47.980;11.652;2023-07-13T08:37:13;23.10;63.10
50758;DHT22;36732;47.980;11.652;2023-07-13T08:39:39;23.00;62.70
50758;DHT22;36732;47.980;11.652;2023-07-13T08:42:11;23.00;62.40
50758;DHT22;36732;47.980;11.652;2023-07-13T08:44:44;23.00;62.00
50758;DHT22;36732;47.980;11.652;2023-07-13T08:47:21;23.00;61.50
50758;DHT22;36732;47.980;11.652;2023-07-13T08:49:48;23.00;61.60
50758;DHT22;36732;47.980;11.652;2023-07-13T08:55:05;23.00;61.40
50758;DHT22;36732;47.980;11.652;2023-07-13T08:57:40;22.90;61.30
50758;DHT22;36732;47.980;11.652;2023-07-13T09:00:12;22.90;60.80
50758;DHT22;36732;47.980;11.652;2023-07-13T09:08:17;22.90;61.20
50758;DHT22;36732;47.980;11.652;2023-07-13T09:16:14;22.80;61.60
50758;DHT22;36732;47.980;11.652;2023-07-13T09:18:51;22.80;61.70
50758;DHT22;36732;47.980;11.652;2023-07-13T09:21:31;22.80;61.80
50758;DHT22;36732;47.980;11.652;2023-07-13T09:24:17;22.80;61.60
50758;DHT22;36732;47.980;11.652;2023-07-13T09:27:00;22.80;61.60
50758;DHT22;36732;47.980;11.652;2023-07-13T09:29:31;22.80;61.40
50758;DHT22;36732;47.980;11.652;2023-07-13T09:32:03;22.80;61.30
50758;DHT22;36732;47.980;11.652;2023-07-13T09:34:32;22.70;61.20
50758;DHT22;36732;47.980;11.652;2023-07-13T09:36:59;22.80;61.30
50758;DHT22;36732;47.980;11.652;2023-07-13T09:39:30;22.80;61.30
50758;DHT22;36732;47.980;11.652;2023-07-13T09:44:56;22.70;61.50
50758;DHT22;36732;47.980;11.652;2023-07-13T09:47:29;22.70;61.60
50758;DHT22;36732;47.980;11.652;2023-07-13T09:50:04;22.70;61.60
50758;DHT22;36732;47.980;11.652;2023-07-13T09:52:46;22.70;61.50
50758;DHT22;36732;47.980;11.652;2023-07-13T09:55:38;22.70;61.40
50758;DHT22;36732;47.980;11.652;2023-07-13T09:58:16;22.70;61.30
50758;DHT22;36732;47.980;11.652;2023-07-13T10:00:55;22.70;61.60
50758;DHT22;36732;47.980;11.652;2023-07-13T10:03:31;22.70;61.90
50758;DHT22;36732;47.980;11.652;2023-07-13T10:06:17;22.70;62.10
50758;DHT22;36732;47.980;11.652;2023-07-13T10:08:47;22.70;62.40
50758;DHT22;36732;47.980;11.652;2023-07-13T10:16:26;22.70;62.30
50758;DHT22;36732;47.980;11.652;2023-07-13T10:19:00;22.70;62.10
50758;DHT22;36732;47.980;11.652;2023-07-13T10:21:41;22.70;62.30
50758;DHT22;36732;47.980;11.652;2023-07-13T10:27:14;22.70;62.00
50758;DHT22;36732;47.980;11.652;2023-07-13T10:29:46;22.70;62.10
50758;DHT22;36732;47.980;11.652;2023-07-13T10:32:14;22.70;61.80
50758;DHT22;36732;47.980;11.652;2023-07-13T10:34:43;22.80;61.70
50758;DHT22;36732;47.980;11.652;2023-07-13T10:37:19;22.80;61.30
50758;DHT22;36732;47.980;11.652;2023-07-13T10:39:48;22.70;61.50
50758;DHT22;36732;47.980;11.652;2023-07-13T10:42:31;22.80;61.80
50758;DHT22;36732;47.980;11.652;2023-07-13T10:44:59;22.80;61.00
50758;DHT22;36732;47.980;11.652;2023-07-13T10:47:26;22.80;61.30
50758;DHT22;36732;47.980;11.652;2023-07-13T10:49:54;22.80;61.50
50758;DHT22;36732;47.980;11.652;2023-07-13T10:52:42;22.80;61.20
50758;DHT22;36732;47.980;11.652;2023-07-13T10:58:22;22.80;61.10
50758;DHT22;36732;47.980;11.652;2023-07-13T11:01:16;22.90;61.40
50758;DHT22;36732;47.980;11.652;2023-07-13T11:03:59;22.90;61.30
50758;DHT22;36732;47.980;11.652;2023-07-13T11:08:56;23.00;60.60
50758;DHT22;36732;47.980;11.652;2023-07-13T11:16:41;23.10;60.40
50758;DHT22;36732;47.980;11.652;2023-07-13T11:25:01;23.10;60.00
50758;DHT22;36732;47.980;11.652;2023-07-13T11:27:38;23.20;58.90
50758;DHT22;36732;47.980;11.652;2023-07-13T11:36:04;23.20;57.90
50758;DHT22;36732;47.980;11.652;2023-07-13T11:38:46;23.30;57.00
50758;DHT22;36732;47.980;11.652;2023-07-13T11:41:37;23.30;58.20
50758;DHT22;36732;47.980;11.652;2023-07-13T11:44:14;23.30;58.30
50758;DHT22;36732;47.980;11.652;2023-07-13T11:46:46;23.30;58.60
50758;DHT22;36732;47.980;11.652;2023-07-13T11:49:16;23.40;58.70
50758;DHT22;36732;47.980;11.652;2023-07-13T11:51:43;23.40;58.50
50758;DHT22;36732;47.980;11.652;2023-07-13T11:56:58;23.40;58.20
50758;DHT22;36732;47.980;11.652;2023-07-13T11:59:28;23.40;56.90
50758;DHT22;36732;47.980;11.652;2023-07-13T12:01:55;23.40;55.70
50758;DHT22;36732;47.980;11.652;2023-07-13T12:04:27;23.50;55.50
50758;DHT22;36732;47.980;11.652;2023-07-13T12:07:03;23.50;55.80
50758;DHT22;36732;47.980;11.652;2023-07-13T12:09:31;23.50;55.90
50758;DHT22;36732;47.980;11.652;2023-07-13T12:11:59;23.50;56.60
50758;DHT22;36732;47.980;11.652;2023-07-13T12:14:26;23.50;56.60
50758;DHT22;36732;47.980;11.652;2023-07-13T12:16:53;23.50;56.80
50758;DHT22;36732;47.980;11.652;2023-07-13T12:19:23;23.50;56.20
50758;DHT22;36732;47.980;11.652;2023-07-13T12:21:53;23.50;55.80
50758;DHT22;36732;47.980;11.652;2023-07-13T12:24:24;23.60;55.80
50758;DHT22;36732;47.980;11.652;2023-07-13T12:27:00;23.60;56.20
50758;DHT22;36732;47.980;11.652;2023-07-13T12:29:26;23.60;55.80
50758;DHT22;36732;47.980;11.652;2023-07-13T12:31:52;23.60;56.10
50758;DHT22;36732;47.980;11.652;2023-07-13T12:34:20;23.70;55.90
50758;DHT22;36732;47.980;11.652;2023-07-13T12:36:53;23.70;55.80
50758;DHT22;36732;47.980;11.652;2023-07-13T12:39:44;23.70;55.40
50758;DHT22;36732;47.980;11.652;2023-07-13T12:42:23;23.70;55.30
50758;DHT22;36732;47.980;11.652;2023-07-13T12:45:00;23.70;55.70
50758;DHT22;36732;47.980;11.652;2023-07-13T12:47:28;23.70;55.80
50758;DHT22;36732;47.980;11.652;2023-07-13T12:49:56;23.70;56.20
50758;DHT22;36732;47.980;11.652;2023-07-13T12:52:29;23.80;56.50
50758;DHT22;36732;47.980;11.652;2023-07-13T12:55:10;23.80;55.80
50758;DHT22;36732;47.980;11.652;2023-07-13T12:57:43;23.80;56.10
50758;DHT22;36732;47.980;11.652;2023-07-13T13:00:29;23.80;56.30
50758;DHT22;36732;47.980;11.652;2023-07-13T13:03:02;23.80;55.60
50758;DHT22;36732;47.980;11.652;2023-07-13T13:05:32;23.90;55.70
50758;DHT22;36732;47.980;11.652;2023-07-13T13:07:58;23.90;56.20
50758;DHT22;36732;47.980;11.652;2023-07-13T13:10:24;23.90;56.40
50758;DHT22;36732;47.980;11.652;2023-07-13T13:12:50;23.90;56.20
50758;DHT22;36732;47.980;11.652;2023-07-13T13:15:16;24.00;56.30
50758;DHT22;36732;47.980;11.652;2023-07-13T13:17:42;24.00;56.30
50758;DHT22;36732;47.980;11.652;2023-07-13T13:20:15;24.00;56.40
50758;DHT22;36732;47.980;11.652;2023-07-13T13:22:42;24.00;56.00
50758;DHT22;36732;47.980;11.652;2023-07-13T13:25:12;24.00;56.30
50758;DHT22;36732;47.980;11.652;2023-07-13T13:27:40;24.00;56.20
50758;DHT22;36732;47.980;11.652;2023-07-13T13:32:40;24.10;54.50
50758;DHT22;36732;47.980;11.652;2023-07-13T13:35:12;24.10;55.20
50758;DHT22;36732;47.980;11.652;2023-07-13T13:37:39;24.10;55.30
50758;DHT22;36732;47.980;11.652;2023-07-13T13:40:17;24.10;55.50
50758;DHT22;36732;47.980;11.652;2023-07-13T13:42:44;24.10;54.80
50758;DHT22;36732;47.980;11.652;2023-07-13T13:45:11;24.10;54.00
50758;DHT22;36732;47.980;11.652;2023-07-13T13:47:38;24.20;53.90
50758;DHT22;36732;47.980;11.652;2023-07-13T13:50:15;24.20;54.20
50758;DHT22;36732;47.980;11.652;2023-07-13T13:52:43;24.20;53.90
50758;DHT22;36732;47.980;11.652;2023-07-13T13:55:18;24.20;54.20
50758;DHT22;36732;47.980;11.652;2023-07-13T13:57:45;24.20;53.50
50758;DHT22;36732;47.980;11.652;2023-07-13T14:00:12;24.20;54.20
50758;DHT22;36732;47.980;11.652;2023-07-13T14:02:41;24.20;54.40
50758;DHT22;36732;47.980;11.652;2023-07-13T14:05:22;24.20;54.20
50758;DHT22;36732;47.980;11.652;2023-07-13T14:07:51;24.20;54.30
50758;DHT22;36732;47.980;11.652;2023-07-13T14:10:18;24.30;54.20
50758;DHT22;36732;47.980;11.652;2023-07-13T14:12:48;24.30;54.20
50758;DHT22;36732;47.980;11.652;2023-07-13T14:15:18;24.30;54.10
50758;DHT22;36732;47.980;11.652;2023-07-13T14:17:46;24.30;54.30
50758;DHT22;36732;47.980;11.652;2023-07-13T14:20:16;24.30;54.20
50758;DHT22;36732;47.980;11.652;2023-07-13T14:22:42;24.30;53.80
50758;DHT22;36732;47.980;11.652;2023-07-13T14:25:15;24.30;53.80
50758;DHT22;36732;47.980;11.652;2023-07-13T14:27:43;24.30;53.90
50758;DHT22;36732;47.980;11.652;2023-07-13T14:30:19;24.30;54.00
50758;DHT22;36732;47.980;11.652;2023-07-13T14:32:46;24.30;52.00
50758;DHT22;36732;47.980;11.652;2023-07-13T14:35:14;24.40;52.40
50758;DHT22;36732;47.980;11.652;2023-07-13T14:37:41;24.40;52.80
50758;DHT22;36732;47.980;11.652;2023-07-13T14:40:21;24.40;53.00
50758;DHT22;36732;47.980;11.652;2023-07-13T14:42:51;24.40;52.90
50758;DHT22;36732;47.980;11.652;2023-07-13T14:45:19;24.40;53.20
50758;DHT22;36732;47.980;11.652;2023-07-13T14:47:46;24.40;53.30
50758;DHT22;36732;47.980;11.652;2023-07-13T14:50:26;24.40;53.00
50758;DHT22;36732;47.980;11.652;2023-07-13T14:52:56;24.40;52.60
50758;DHT22;36732;47.980;11.652;2023-07-13T14:55:21;24.50;53.00
50758;DHT22;36732;47.980;11.652;2023-07-13T14:57:48;24.50;52.90
50758;DHT22;36732;47.980;11.652;2023-07-13T15:00:17;24.50;53.00
50758;DHT22;36732;47.980;11.652;2023-07-13T15:02:52;24.50;52.80
50758;DHT22;36732;47.980;11.652;2023-07-13T15:05:22;24.50;52.90
50758;DHT22;36732;47.980;11.652;2023-07-13T15:07:50;24.50;53.10
50758;DHT22;36732;47.980;11.652;2023-07-13T15:10:23;24.50;53.10
50758;DHT22;36732;47.980;11.652;2023-07-13T15:12:51;24.60;53.10
50758;DHT22;36732;47.980;11.652;2023-07-13T15:15:18;24.60;52.90
50758;DHT22;36732;47.980;11.652;2023-07-13T15:17:46;24.60;53.10
50758;DHT22;36732;47.980;11.652;2023-07-13T15:22:56;24.60;52.10
50758;DHT22;36732;47.980;11.652;2023-07-13T15:25:27;24.70;53.10
50758;DHT22;36732;47.980;11.652;2023-07-13T15:27:55;24.70;53.20
50758;DHT22;36732;47.980;11.652;2023-07-13T15:30:22;24.70;53.20
50758;DHT22;36732;47.980;11.652;2023-07-13T15:32:51;24.70;52.90
50758;DHT22;36732;47.980;11.652;2023-07-13T15:35:19;24.70;52.80
50758;DHT22;36732;47.980;11.652;2023-07-13T15:37:49;24.70;52.70
50758;DHT22;36732;47.980;11.652;2023-07-13T15:40:16;24.70;53.10
50758;DHT22;36732;47.980;11.652;2023-07-13T15:42:43;24.70;52.80
50758;DHT22;36732;47.980;11.652;2023-07-13T15:45:23;24.70;52.60
50758;DHT22;36732;47.980;11.652;2023-07-13T15:47:52;24.70;53.20
50758;DHT22;36732;47.980;11.652;2023-07-13T15:50:22;24.70;52.70
50758;DHT22;36732;47.980;11.652;2023-07-13T15:52:53;24.70;52.40
50758;DHT22;36732;47.980;11.652;2023-07-13T15:55:20;24.70;52.20
50758;DHT22;36732;47.980;11.652;2023-07-13T15:57:49;24.70;52.00
50758;DHT22;36732;47.980;11.652;2023-07-13T16:00:25;24.70;51.40
50758;DHT22;36732;47.980;11.652;2023-07-13T16:02:51;24.70;50.70
50758;DHT22;36732;47.980;11.652;2023-07-13T16:05:18;24.70;51.10
50758;DHT22;36732;47.980;11.652;2023-07-13T16:07:46;24.70;50.50
50758;DHT22;36732;47.980;11.652;2023-07-13T16:10:16;24.70;50.90
50758;DHT22;36732;47.980;11.652;2023-07-13T16:12:43;24.70;51.20
50758;DHT22;36732;47.980;11.652;2023-07-13T16:15:16;24.80;51.70
50758;DHT22;36732;47.980;11.652;2023-07-13T16:17:45;24.80;51.40
50758;DHT22;36732;47.980;11.652;2023-07-13T16:20:12;24.80;51.50